sensor_id;sensor_type;location;lat;lon;timestamp;pressure;altitude;pressure_sealevel;temperature;humidity
42603;BME280;28233;55.748;48.752;2024-03-29T00:01:24;99125.41;;;0.77;57.12
42603;BME280;28233;55.748;48.752;2024-03-29T00:03:26;99127.84;;;0.79;57.69
42603;BME280;28233;55.748;48.752;2024-03-29T00:05:27;99122.19;;;0.80;57.29
42603;BME280;28233;55.748;48.752;2024-03-29T00:07:29;99125.69;;;0.81;57.19
42603;BME280;28233;55.748;48.752;2024-03-29T00:09:31;99127.84;;;0.79;57.35
42603;BME280;28233;55.748;48.752;2024-03-29T00:11:32;99126.22;;;0.78;57.47
42603;BME280;28233;55.748;48.752;2024-03-29T00:13:34;99128.94;;;0.78;57.48
42603;BME280;28233;55.748;48.752;2024-03-29T00:15:36;99125.41;;;0.77;57.08
42603;BME280;28233;55.748;48.752;2024-03-29T00:17:38;99130.81;;;0.77;57.59
42603;BME280;28233;55.748;48.752;2024-03-29T00:19:40;99136.50;;;0.76;57.26
42603;BME280;28233;55.748;48.752;2024-03-29T00:21:42;99139.72;;;0.73;57.98
42603;BME280;28233;55.748;48.752;2024-03-29T00:23:44;99151.38;;;0.73;57.82
42603;BME280;28233;55.748;48.752;2024-03-29T00:25:47;99146.47;;;0.70;58.09
42603;BME280;28233;55.748;48.752;2024-03-29T00:27:48;99151.88;;;0.70;58.11
42603;BME280;28233;55.748;48.752;2024-03-29T00:29:51;99151.88;;;0.70;58.61
42603;BME280;28233;55.748;48.752;2024-03-29T00:31:54;99148.91;;;0.67;58.77
42603;BME280;28233;55.748;48.752;2024-03-29T00:33:56;99148.09;;;0.66;58.87
42603;BME280;28233;55.748;48.752;2024-03-29T00:35:58;99150.81;;;0.66;58.89
42603;BME280;28233;55.748;48.752;2024-03-29T00:37:59;99141.34;;;0.69;58.49
42603;BME280;28233;55.748;48.752;2024-03-29T00:40:04;99152.16;;;0.69;58.99
42603;BME280;28233;55.748;48.752;2024-03-29T00:42:06;99149.16;;;0.70;58.42
42603;BME280;28233;55.748;48.752;2024-03-29T00:44:10;99136.19;;;0.67;58.44
42603;BME280;28233;55.748;48.752;2024-03-29T00:46:11;99145.97;;;0.73;58.41
42603;BME280;28233;55.748;48.752;2024-03-29T00:48:13;99153.78;;;0.75;58.34
42603;BME280;28233;55.748;48.752;2024-03-29T00:50:16;99152.72;;;0.76;58.58
42603;BME280;28233;55.748;48.752;2024-03-29T00:52:18;99149.22;;;0.75;58.41
42603;BME280;28233;55.748;48.752;2024-03-29T00:54:19;99141.06;;;0.70;58.84
42603;BME280;28233;55.748;48.752;2024-03-29T00:56:21;99146.75;;;0.69;58.99
42603;BME280;28233;55.748;48.752;2024-03-29T00:58:23;99147.25;;;0.66;59.00
42603;BME280;28233;55.748;48.752;2024-03-29T01:00:24;99143.19;;;0.63;59.46
42603;BME280;28233;55.748;48.752;2024-03-29T01:02:26;99149.16;;;0.60;59.55
42603;BME280;28233;55.748;48.752;2024-03-29T01:04:28;99146.16;;;0.56;59.25
42603;BME280;28233;55.748;48.752;2024-03-29T01:06:30;99148.03;;;0.56;59.31
42603;BME280;28233;55.748;48.752;2024-03-29T01:08:31;99151.03;;;0.54;59.99
42603;BME280;28233;55.748;48.752;2024-03-29T01:10:33;99150.75;;;0.56;59.72
42603;BME280;28233;55.748;48.752;2024-03-29T01:12:36;99148.84;;;0.56;59.26
42603;BME280;28233;55.748;48.752;2024-03-29T01:14:37;99142.94;;;0.54;59.49
42603;BME280;28233;55.748;48.752;2024-03-29T01:16:39;99145.63;;;0.54;59.13
42603;BME280;28233;55.748;48.752;2024-03-29T01:18:41;99145.34;;;0.56;59.26
42603;BME280;28233;55.748;48.752;2024-03-29T01:20:44;99145.34;;;0.56;59.48
42603;BME280;28233;55.748;48.752;2024-03-29T01:22:46;99153.47;;;0.56;58.97
42603;BME280;28233;55.748;48.752;2024-03-29T01:24:48;99150.47;;;0.52;59.31
42603;BME280;28233;55.748;48.752;2024-03-29T01:26:50;99153.75;;;0.54;59.07
42603;BME280;28233;55.748;48.752;2024-03-29T01:28:51;99163.72;;;0.54;58.99
42603;BME280;28233;55.748;48.752;2024-03-29T01:30:53;99149.94;;;0.50;59.29
42603;BME280;28233;55.748;48.752;2024-03-29T01:32:56;99147.78;;;0.52;59.06
42603;BME280;28233;55.748;48.752;2024-03-29T01:34:57;99153.75;;;0.54;59.04
42603;BME280;28233;55.748;48.752;2024-03-29T01:36:59;99158.88;;;0.56;59.31
42603;BME280;28233;55.748;48.752;2024-03-29T01:39:00;99148.03;;;0.56;59.03
42603;BME280;28233;55.748;48.752;2024-03-29T01:41:03;99162.38;;;0.56;58.92
42603;BME280;28233;55.748;48.752;2024-03-29T01:43:04;99161.88;;;0.59;58.34
42603;BME280;28233;55.748;48.752;2024-03-29T01:45:07;99164.28;;;0.61;58.19
42603;BME280;28233;55.748;48.752;2024-03-29T01:47:09;99157.50;;;0.58;58.87
42603;BME280;28233;55.748;48.752;2024-03-29T01:49:11;99159.41;;;0.58;58.73
42603;BME280;28233;55.748;48.752;2024-03-29T01:51:14;99154.56;;;0.60;58.45
42603;BME280;28233;55.748;48.752;2024-03-29T01:53:18;99160.25;;;0.63;58.93
42603;BME280;28233;55.748;48.752;2024-03-29T01:55:20;99158.34;;;0.59;59.40
42603;BME280;28233;55.748;48.752;2024-03-29T01:57:22;99159.09;;;0.49;60.01
42603;BME280;28233;55.748;48.752;2024-03-29T01:59:25;99152.31;;;0.36;60.60
42603;BME280;28233;55.748;48.752;2024-03-29T02:01:28;99160.91;;;0.28;60.39
42603;BME280;28233;55.748;48.752;2024-03-29T02:03:31;99151.94;;;0.17;61.25
42603;BME280;28233;55.748;48.752;2024-03-29T02:05:33;99153.25;;;0.10;61.62
42603;BME280;28233;55.748;48.752;2024-03-29T02:07:35;99146.97;;;-0.01;62.77
42603;BME280;28233;55.748;48.752;2024-03-29T02:09:38;99152.34;;;-0.06;63.05
42603;BME280;28233;55.748;48.752;2024-03-29T02:11:39;99146.09;;;-0.12;63.49
42603;BME280;28233;55.748;48.752;2024-03-29T02:13:41;99147.72;;;-0.16;63.38
42603;BME280;28233;55.748;48.752;2024-03-29T02:15:43;99161.97;;;-0.20;64.48
42603;BME280;28233;55.748;48.752;2024-03-29T02:17:45;99160.88;;;-0.25;65.41
42603;BME280;28233;55.748;48.752;2024-03-29T02:19:46;99162.16;;;-0.32;64.67
42603;BME280;28233;55.748;48.752;2024-03-29T02:21:49;99162.13;;;-0.37;66.08
42603;BME280;28233;55.748;48.752;2024-03-29T02:24:06;99156.69;;;-0.43;66.24
42603;BME280;28233;55.748;48.752;2024-03-29T02:26:08;99153.44;;;-0.45;66.02
42603;BME280;28233;55.748;48.752;2024-03-29T02:28:09;99162.59;;;-0.46;67.67
42603;BME280;28233;55.748;48.752;2024-03-29T02:30:14;99164.19;;;-0.50;66.82
42603;BME280;28233;55.748;48.752;2024-03-29T02:32:17;99151.22;;;-0.53;66.54
42603;BME280;28233;55.748;48.752;2024-03-29T02:34:18;99156.59;;;-0.53;66.99
42603;BME280;28233;55.748;48.752;2024-03-29T02:36:20;99168.78;;;-0.50;67.21
42603;BME280;28233;55.748;48.752;2024-03-29T02:38:21;99167.66;;;-0.54;67.11
42603;BME280;28233;55.748;48.752;2024-03-29T02:40:23;99165.78;;;-0.54;67.03
42603;BME280;28233;55.748;48.752;2024-03-29T02:42:24;99169.28;;;-0.53;67.62
42603;BME280;28233;55.748;48.752;2024-03-29T02:44:26;99172.28;;;-0.50;67.49
42603;BME280;28233;55.748;48.752;2024-03-29T02:46:28;99167.44;;;-0.48;67.13
42603;BME280;28233;55.748;48.752;2024-03-29T02:48:29;99178.03;;;-0.41;66.85
42603;BME280;28233;55.748;48.752;2024-03-29T02:50:31;99178.34;;;-0.37;66.77
42603;BME280;28233;55.748;48.752;2024-03-29T02:52:33;99173.47;;;-0.35;66.78
42603;BME280;28233;55.748;48.752;2024-03-29T02:54:34;99171.06;;;-0.32;67.11
42603;BME280;28233;55.748;48.752;2024-03-29T02:56:36;99180.00;;;-0.26;66.84
42603;BME280;28233;55.748;48.752;2024-03-29T02:58:38;99172.78;;;-0.20;66.18
42603;BME280;28233;55.748;48.752;2024-03-29T03:00:39;99180.34;;;-0.17;66.46
42603;BME280;28233;55.748;48.752;2024-03-29T03:02:41;99181.47;;;-0.13;66.28
42603;BME280;28233;55.748;48.752;2024-03-29T03:04:43;99173.09;;;-0.12;66.00
42603;BME280;28233;55.748;48.752;2024-03-29T03:06:45;99186.94;;;-0.03;65.58
42603;BME280;28233;55.748;48.752;2024-03-29T03:08:46;99179.69;;;0.03;64.46
42603;BME280;28233;55.748;48.752;2024-03-29T03:11:06;99191.88;;;0.05;64.82
42603;BME280;28233;55.748;48.752;2024-03-29T03:13:08;99188.63;;;0.08;64.51
42603;BME280;28233;55.748;48.752;2024-03-29T03:15:09;99184.59;;;0.11;64.75
42603;BME280;28233;55.748;48.752;2024-03-29T03:17:11;99189.22;;;0.15;64.80
42603;BME280;28233;55.748;48.752;2024-03-29T03:19:13;99193.03;;;0.19;64.71
42603;BME280;28233;55.748;48.752;2024-03-29T03:21:14;99190.09;;;0.26;63.93
42603;BME280;28233;55.748;48.752;2024-03-29T03:23:16;99190.63;;;0.28;64.35
42603;BME280;28233;55.748;48.752;2024-03-29T03:25:17;99196.88;;;0.34;64.28
42603;BME280;28233;55.748;48.752;2024-03-29T03:27:20;99190.41;;;0.40;64.09
42603;BME280;28233;55.748;48.752;2024-03-29T03:29:21;99191.53;;;0.49;63.26
42603;BME280;28233;55.748;48.752;2024-03-29T03:31:23;99191.03;;;0.52;63.83
42603;BME280;28233;55.748;48.752;2024-03-29T03:33:24;99196.47;;;0.57;63.82
42603;BME280;28233;55.748;48.752;2024-03-29T03:35:26;99202.44;;;0.65;63.41
42603;BME280;28233;55.748;48.752;2024-03-29T03:37:28;99211.66;;;0.74;62.80
42603;BME280;28233;55.748;48.752;2024-03-29T03:39:30;99206.56;;;0.82;62.08
42603;BME280;28233;55.748;48.752;2024-03-29T03:41:31;99210.34;;;0.92;62.29
42603;BME280;28233;55.748;48.752;2024-03-29T03:43:33;99205.78;;;0.97;61.26
42603;BME280;28233;55.748;48.752;2024-03-29T03:47:37;99205.00;;;1.12;59.76
42603;BME280;28233;55.748;48.752;2024-03-29T03:49:38;99212.06;;;1.18;59.19
42603;BME280;28233;55.748;48.752;2024-03-29T03:51:40;99204.75;;;1.24;59.11
42603;BME280;28233;55.748;48.752;2024-03-29T03:53:42;99216.69;;;1.28;58.12
42603;BME280;28233;55.748;48.752;2024-03-29T03:55:43;99208.81;;;1.32;58.41
42603;BME280;28233;55.748;48.752;2024-03-29T03:57:45;99214.28;;;1.37;57.29
42603;BME280;28233;55.748;48.752;2024-03-29T03:59:49;99208.03;;;1.36;57.63
42603;BME280;28233;55.748;48.752;2024-03-29T04:01:51;99218.06;;;1.41;57.06
42603;BME280;28233;55.748;48.752;2024-03-29T04:03:53;99218.34;;;1.44;57.53
42603;BME280;28233;55.748;48.752;2024-03-29T04:05:55;99211.56;;;1.47;57.28
42603;BME280;28233;55.748;48.752;2024-03-29T04:07:57;99216.44;;;1.55;56.97
42603;BME280;28233;55.748;48.752;2024-03-29T04:09:58;99213.75;;;1.60;56.06
42603;BME280;28233;55.748;48.752;2024-03-29T04:12:00;99207.78;;;1.63;55.92
42603;BME280;28233;55.748;48.752;2024-03-29T04:14:02;99211.03;;;1.71;55.25
42603;BME280;28233;55.748;48.752;2024-03-29T04:16:04;99213.75;;;1.76;54.92
42603;BME280;28233;55.748;48.752;2024-03-29T04:18:06;99210.50;;;1.84;54.56
42603;BME280;28233;55.748;48.752;2024-03-29T04:20:08;99211.84;;;1.86;54.05
42603;BME280;28233;55.748;48.752;2024-03-29T04:22:11;99209.13;;;1.97;54.46
42603;BME280;28233;55.748;48.752;2024-03-29T04:24:12;99219.69;;;2.03;53.83
42603;BME280;28233;55.748;48.752;2024-03-29T04:26:14;99211.28;;;2.10;53.85
42603;BME280;28233;55.748;48.752;2024-03-29T04:28:16;99221.03;;;2.21;54.01
42603;BME280;28233;55.748;48.752;2024-03-29T04:30:17;99228.59;;;2.29;53.87
42603;BME280;28233;55.748;48.752;2024-03-29T04:32:19;99221.25;;;2.35;53.38
42603;BME280;28233;55.748;48.752;2024-03-29T04:34:21;99224.50;;;2.42;53.34
42603;BME280;28233;55.748;48.752;2024-03-29T04:36:22;99226.66;;;2.45;53.44
42603;BME280;28233;55.748;48.752;2024-03-29T04:38:24;99222.84;;;2.51;53.07
42603;BME280;28233;55.748;48.752;2024-03-29T04:40:26;99216.84;;;2.60;52.96
42603;BME280;28233;55.748;48.752;2024-03-29T04:42:27;99213.84;;;2.66;53.07
42603;BME280;28233;55.748;48.752;2024-03-29T04:44:29;99210.81;;;2.78;53.19
42603;BME280;28233;55.748;48.752;2024-03-29T04:46:31;99213.50;;;2.83;52.44
42603;BME280;28233;55.748;48.752;2024-03-29T04:48:33;99216.72;;;2.90;51.94
42603;BME280;28233;55.748;48.752;2024-03-29T04:50:34;99218.34;;;2.96;52.34
42603;BME280;28233;55.748;48.752;2024-03-29T04:52:36;99225.66;;;3.01;52.18
42603;BME280;28233;55.748;48.752;2024-03-29T04:54:38;99218.28;;;3.07;52.14
42603;BME280;28233;55.748;48.752;2024-03-29T04:56:39;99221.50;;;3.14;52.30
42603;BME280;28233;55.748;48.752;2024-03-29T04:58:41;99226.88;;;3.24;51.83
42603;BME280;28233;55.748;48.752;2024-03-29T05:00:44;99227.38;;;3.31;52.01
42603;BME280;28233;55.748;48.752;2024-03-29T05:02:45;99213.78;;;3.31;52.77
42603;BME280;28233;55.748;48.752;2024-03-29T05:04:47;99225.16;;;3.38;52.87
42603;BME280;28233;55.748;48.752;2024-03-29T05:06:49;99219.44;;;3.40;51.55
42603;BME280;28233;55.748;48.752;2024-03-29T05:08:51;99215.88;;;3.45;51.34
42603;BME280;28233;55.748;48.752;2024-03-29T05:10:52;99224.28;;;3.48;51.07
42603;BME280;28233;55.748;48.752;2024-03-29T05:12:54;99222.34;;;3.54;50.77
42603;BME280;28233;55.748;48.752;2024-03-29T05:14:55;99223.41;;;3.58;51.25
42603;BME280;28233;55.748;48.752;2024-03-29T05:16:57;99222.25;;;3.64;51.00
42603;BME280;28233;55.748;48.752;2024-03-29T05:18:59;99221.41;;;3.69;50.85
42603;BME280;28233;55.748;48.752;2024-03-29T05:21:01;99221.09;;;3.75;51.06
42603;BME280;28233;55.748;48.752;2024-03-29T05:23:03;99220.50;;;3.78;50.76
42603;BME280;28233;55.748;48.752;2024-03-29T05:25:04;99220.19;;;3.85;50.02
42603;BME280;28233;55.748;48.752;2024-03-29T05:27:06;99219.28;;;3.95;50.08
42603;BME280;28233;55.748;48.752;2024-03-29T05:29:08;99214.63;;;4.00;49.54
42603;BME280;28233;55.748;48.752;2024-03-29T05:31:14;99223.78;;;4.10;48.74
42603;BME280;28233;55.748;48.752;2024-03-29T05:33:16;99219.88;;;4.21;48.15
42603;BME280;28233;55.748;48.752;2024-03-29T05:35:18;99220.59;;;4.32;47.94
42603;BME280;28233;55.748;48.752;2024-03-29T05:37:19;99222.69;;;4.40;47.36
42603;BME280;28233;55.748;48.752;2024-03-29T05:39:21;99222.31;;;4.47;45.88
42603;BME280;28233;55.748;48.752;2024-03-29T05:41:22;99226.38;;;4.49;46.49
42603;BME280;28233;55.748;48.752;2024-03-29T05:43:25;99214.13;;;4.52;46.18
42603;BME280;28233;55.748;48.752;2024-03-29T05:45:28;99217.00;;;4.60;46.26
42603;BME280;28233;55.748;48.752;2024-03-29T05:47:31;99225.34;;;4.69;45.97
42603;BME280;28233;55.748;48.752;2024-03-29T05:49:32;99218.44;;;4.77;46.13
42603;BME280;28233;55.748;48.752;2024-03-29T05:51:34;99222.47;;;4.84;46.45
42603;BME280;28233;55.748;48.752;2024-03-29T05:53:37;99215.31;;;4.88;46.82
42603;BME280;28233;55.748;48.752;2024-03-29T05:55:38;99224.53;;;4.93;45.32
42603;BME280;28233;55.748;48.752;2024-03-29T05:57:40;99217.47;;;4.92;46.23
42603;BME280;28233;55.748;48.752;2024-03-29T05:59:46;99227.97;;;4.98;46.09
42603;BME280;28233;55.748;48.752;2024-03-29T06:01:48;99224.69;;;5.01;45.49
42603;BME280;28233;55.748;48.752;2024-03-29T06:03:50;99221.38;;;5.04;46.02
42603;BME280;28233;55.748;48.752;2024-03-29T06:05:56;99225.94;;;5.09;46.50
42603;BME280;28233;55.748;48.752;2024-03-29T06:07:58;99225.44;;;5.07;45.61
42603;BME280;28233;55.748;48.752;2024-03-29T06:10:00;99230.06;;;5.06;45.45
42603;BME280;28233;55.748;48.752;2024-03-29T06:12:06;99225.72;;;5.05;45.01
42603;BME280;28233;55.748;48.752;2024-03-29T06:14:11;99220.84;;;5.02;45.53
42603;BME280;28233;55.748;48.752;2024-03-29T06:16:13;99223.06;;;5.00;45.31
42603;BME280;28233;55.748;48.752;2024-03-29T06:18:33;99224.69;;;5.01;45.14
42603;BME280;28233;55.748;48.752;2024-03-29T06:20:35;99225.78;;;5.00;45.16
42603;BME280;28233;55.748;48.752;2024-03-29T06:22:36;99226.38;;;4.97;45.05
42603;BME280;28233;55.748;48.752;2024-03-29T06:24:38;99234.19;;;5.04;45.24
42603;BME280;28233;55.748;48.752;2024-03-29T06:26:41;99234.13;;;5.09;45.57
42603;BME280;28233;55.748;48.752;2024-03-29T06:28:43;99229.41;;;5.15;45.50
42603;BME280;28233;55.748;48.752;2024-03-29T06:30:44;99233.75;;;5.16;45.72
42603;BME280;28233;55.748;48.752;2024-03-29T06:32:46;99233.16;;;5.19;46.44
42603;BME280;28233;55.748;48.752;2024-03-29T06:34:48;99241.63;;;5.17;45.55
42603;BME280;28233;55.748;48.752;2024-03-29T06:36:50;99238.34;;;5.20;45.94
42603;BME280;28233;55.748;48.752;2024-03-29T06:38:54;99230.38;;;5.24;45.95
42603;BME280;28233;55.748;48.752;2024-03-29T06:40:56;99234.06;;;5.33;46.47
42603;BME280;28233;55.748;48.752;2024-03-29T06:42:57;99228.78;;;5.42;46.36
42603;BME280;28233;55.748;48.752;2024-03-29T06:45:00;99237.09;;;5.50;45.72
42603;BME280;28233;55.748;48.752;2024-03-29T06:47:08;99239.75;;;5.56;45.10
42603;BME280;28233;55.748;48.752;2024-03-29T06:49:09;99233.69;;;5.59;43.90
42603;BME280;28233;55.748;48.752;2024-03-29T06:51:11;99239.88;;;5.64;44.38
42603;BME280;28233;55.748;48.752;2024-03-29T06:53:13;99237.66;;;5.66;43.69
42603;BME280;28233;55.748;48.752;2024-03-29T06:55:14;99244.94;;;5.71;43.10
42603;BME280;28233;55.748;48.752;2024-03-29T06:57:16;99239.13;;;5.78;44.14
42603;BME280;28233;55.748;48.752;2024-03-29T06:59:22;99248.06;;;5.83;44.46
42603;BME280;28233;55.748;48.752;2024-03-29T07:01:24;99252.31;;;5.89;44.03
42603;BME280;28233;55.748;48.752;2024-03-29T07:03:25;99240.25;;;5.96;43.11
42603;BME280;28233;55.748;48.752;2024-03-29T07:05:27;99244.81;;;6.00;44.32
42603;BME280;28233;55.748;48.752;2024-03-29T07:07:28;99244.91;;;6.09;43.71
42603;BME280;28233;55.748;48.752;2024-03-29T07:09:30;99242.31;;;6.18;43.79
42603;BME280;28233;55.748;48.752;2024-03-29T07:11:32;99244.16;;;6.22;43.57
42603;BME280;28233;55.748;48.752;2024-03-29T07:13:33;99247.91;;;6.26;43.42
42603;BME280;28233;55.748;48.752;2024-03-29T07:15:35;99242.13;;;6.28;43.81
42603;BME280;28233;55.748;48.752;2024-03-29T07:17:37;99249.84;;;6.40;43.91
42603;BME280;28233;55.748;48.752;2024-03-29T07:19:39;99239.66;;;6.45;43.54
42603;BME280;28233;55.748;48.752;2024-03-29T07:21:44;99228.94;;;6.49;43.58
42603;BME280;28233;55.748;48.752;2024-03-29T07:23:45;99232.91;;;6.56;43.09
42603;BME280;28233;55.748;48.752;2024-03-29T07:25:57;99232.50;;;6.63;42.62
42603;BME280;28233;55.748;48.752;2024-03-29T07:27:58;99230.06;;;6.62;42.55
42603;BME280;28233;55.748;48.752;2024-03-29T07:30:00;99234.91;;;6.65;41.60
42603;BME280;28233;55.748;48.752;2024-03-29T07:32:02;99227.03;;;6.63;42.40
42603;BME280;28233;55.748;48.752;2024-03-29T07:34:04;99230.38;;;6.74;42.84
42603;BME280;28233;55.748;48.752;2024-03-29T07:36:06;99221.66;;;6.86;42.84
42603;BME280;28233;55.748;48.752;2024-03-29T07:38:11;99219.34;;;6.93;43.08
42603;BME280;28233;55.748;48.752;2024-03-29T07:40:13;99226.31;;;6.99;42.31
42603;BME280;28233;55.748;48.752;2024-03-29T07:42:15;99221.03;;;7.03;42.40
42603;BME280;28233;55.748;48.752;2024-03-29T07:44:17;99221.13;;;7.11;41.23
42603;BME280;28233;55.748;48.752;2024-03-29T07:46:19;99230.25;;;7.07;41.20
42603;BME280;28233;55.748;48.752;2024-03-29T07:48:23;99224.38;;;7.13;41.72
42603;BME280;28233;55.748;48.752;2024-03-29T07:50:25;99235.69;;;7.20;41.95
42603;BME280;28233;55.748;48.752;2024-03-29T07:52:27;99231.13;;;7.30;41.95
42603;BME280;28233;55.748;48.752;2024-03-29T07:54:29;99230.38;;;7.38;40.95
42603;BME280;28233;55.748;48.752;2024-03-29T07:56:30;99223.59;;;7.49;41.89
42603;BME280;28233;55.748;48.752;2024-03-29T07:58:32;99223.97;;;7.56;40.41
42603;BME280;28233;55.748;48.752;2024-03-29T08:00:34;99224.47;;;7.58;41.17
42603;BME280;28233;55.748;48.752;2024-03-29T08:02:36;99222.22;;;7.60;40.95
42603;BME280;28233;55.748;48.752;2024-03-29T08:04:40;99225.13;;;7.64;40.33
42603;BME280;28233;55.748;48.752;2024-03-29T08:06:44;99216.63;;;7.66;40.01
42603;BME280;28233;55.748;48.752;2024-03-29T08:08:46;99216.13;;;7.63;40.59
42603;BME280;28233;55.748;48.752;2024-03-29T08:10:47;99216.63;;;7.66;39.62
42603;BME280;28233;55.748;48.752;2024-03-29T08:12:49;99220.31;;;7.61;40.44
42603;BME280;28233;55.748;48.752;2024-03-29T08:14:51;99206.13;;;7.59;40.27
42603;BME280;28233;55.748;48.752;2024-03-29T08:16:53;99206.84;;;7.65;39.91
42603;BME280;28233;55.748;48.752;2024-03-29T08:18:56;99203.59;;;7.62;40.41
42603;BME280;28233;55.748;48.752;2024-03-29T08:20:59;99195.34;;;7.76;40.90
42603;BME280;28233;55.748;48.752;2024-03-29T08:23:00;99194.41;;;7.81;40.43
42603;BME280;28233;55.748;48.752;2024-03-29T08:25:02;99186.50;;;7.79;40.36
42603;BME280;28233;55.748;48.752;2024-03-29T08:27:06;99188.16;;;7.89;40.62
42603;BME280;28233;55.748;48.752;2024-03-29T08:29:08;99190.28;;;7.92;40.22
42603;BME280;28233;55.748;48.752;2024-03-29T08:31:09;99191.28;;;7.96;40.53
42603;BME280;28233;55.748;48.752;2024-03-29T08:33:11;99192.91;;;7.97;41.14
42603;BME280;28233;55.748;48.752;2024-03-29T08:35:13;99194.00;;;7.96;40.36
42603;BME280;28233;55.748;48.752;2024-03-29T08:37:15;99185.81;;;7.96;40.56
42603;BME280;28233;55.748;48.752;2024-03-29T08:39:17;99198.09;;;8.08;40.94
42603;BME280;28233;55.748;48.752;2024-03-29T08:41:18;99196.75;;;7.96;40.29
42603;BME280;28233;55.748;48.752;2024-03-29T08:43:20;99186.97;;;8.04;40.56
42603;BME280;28233;55.748;48.752;2024-03-29T08:45:22;99192.13;;;8.05;40.49
42603;BME280;28233;55.748;48.752;2024-03-29T08:47:23;99186.81;;;8.00;40.19
42603;BME280;28233;55.748;48.752;2024-03-29T08:49:25;99190.63;;;7.99;40.39
42603;BME280;28233;55.748;48.752;2024-03-29T08:51:27;99189.66;;;7.95;40.42
42603;BME280;28233;55.748;48.752;2024-03-29T08:53:30;99195.50;;;8.02;41.43
42603;BME280;28233;55.748;48.752;2024-03-29T08:55:31;99193.44;;;8.08;41.06
42603;BME280;28233;55.748;48.752;2024-03-29T08:57:33;99190.91;;;8.12;40.87
42603;BME280;28233;55.748;48.752;2024-03-29T08:59:35;99188.97;;;8.12;40.63
42603;BME280;28233;55.748;48.752;2024-03-29T09:01:41;99182.50;;;8.08;40.08
42603;BME280;28233;55.748;48.752;2024-03-29T09:03:42;99182.13;;;8.01;40.69
42603;BME280;28233;55.748;48.752;2024-03-29T09:05:44;99177.97;;;8.03;40.57
42603;BME280;28233;55.748;48.752;2024-03-29T09:07:46;99181.25;;;8.14;41.11
42603;BME280;28233;55.748;48.752;2024-03-29T09:09:49;99185.16;;;8.22;41.14
42603;BME280;28233;55.748;48.752;2024-03-29T09:11:51;99177.00;;;8.31;41.06
42603;BME280;28233;55.748;48.752;2024-03-29T09:13:53;99175.94;;;8.40;41.14
42603;BME280;28233;55.748;48.752;2024-03-29T09:15:55;99169.50;;;8.45;40.75
42603;BME280;28233;55.748;48.752;2024-03-29T09:17:57;99167.28;;;8.56;40.50
42603;BME280;28233;55.748;48.752;2024-03-29T09:20:02;99162.94;;;8.55;40.45
42603;BME280;28233;55.748;48.752;2024-03-29T09:22:06;99174.41;;;8.65;40.58
42603;BME280;28233;55.748;48.752;2024-03-29T09:24:07;99165.06;;;8.66;40.20
42603;BME280;28233;55.748;48.752;2024-03-29T09:26:09;99154.91;;;8.67;40.42
42603;BME280;28233;55.748;48.752;2024-03-29T09:28:10;99159.44;;;8.72;40.22
42603;BME280;28233;55.748;48.752;2024-03-29T09:30:13;99159.47;;;8.80;40.33
42603;BME280;28233;55.748;48.752;2024-03-29T09:32:20;99166.28;;;8.92;40.54
42603;BME280;28233;55.748;48.752;2024-03-29T09:34:24;99165.78;;;9.07;40.12
42603;BME280;28233;55.748;48.752;2024-03-29T09:36:25;99170.16;;;9.17;39.19
42603;BME280;28233;55.748;48.752;2024-03-29T09:38:27;99159.66;;;9.10;38.98
42603;BME280;28233;55.748;48.752;2024-03-29T09:40:29;99151.13;;;9.03;40.20
42603;BME280;28233;55.748;48.752;2024-03-29T09:42:32;99161.13;;;9.16;39.84
42603;BME280;28233;55.748;48.752;2024-03-29T09:44:35;99159.69;;;9.27;39.87
42603;BME280;28233;55.748;48.752;2024-03-29T09:46:37;99141.31;;;9.28;38.76
42603;BME280;28233;55.748;48.752;2024-03-29T09:48:44;99150.84;;;9.39;39.10
42603;BME280;28233;55.748;48.752;2024-03-29T09:50:50;99157.44;;;9.47;38.63
42603;BME280;28233;55.748;48.752;2024-03-29T09:52:54;99147.44;;;9.51;39.34
42603;BME280;28233;55.748;48.752;2024-03-29T09:54:56;99159.38;;;9.55;39.69
42603;BME280;28233;55.748;48.752;2024-03-29T09:56:58;99157.09;;;9.66;39.11
42603;BME280;28233;55.748;48.752;2024-03-29T09:59:00;99157.91;;;9.75;39.32
42603;BME280;28233;55.748;48.752;2024-03-29T10:01:04;99155.47;;;9.82;39.08
42603;BME280;28233;55.748;48.752;2024-03-29T10:03:08;99153.50;;;9.91;39.47
42603;BME280;28233;55.748;48.752;2024-03-29T10:05:12;99147.41;;;9.86;38.72
42603;BME280;28233;55.748;48.752;2024-03-29T10:07:15;99157.41;;;9.73;38.90
42603;BME280;28233;55.748;48.752;2024-03-29T10:09:17;99145.31;;;9.65;38.56
42603;BME280;28233;55.748;48.752;2024-03-29T10:11:19;99145.81;;;9.59;38.80
42603;BME280;28233;55.748;48.752;2024-03-29T10:13:23;99144.38;;;9.52;39.11
42603;BME280;28233;55.748;48.752;2024-03-29T10:15:24;99144.69;;;9.51;38.72
42603;BME280;28233;55.748;48.752;2024-03-29T10:17:30;99144.84;;;9.55;39.16
42603;BME280;28233;55.748;48.752;2024-03-29T10:19:31;99141.59;;;9.61;40.02
42603;BME280;28233;55.748;48.752;2024-03-29T10:21:33;99145.00;;;9.58;39.65
42603;BME280;28233;55.748;48.752;2024-03-29T10:23:36;99149.66;;;9.66;39.82
42603;BME280;28233;55.748;48.752;2024-03-29T10:25:38;99146.25;;;9.78;40.39
42603;BME280;28233;55.748;48.752;2024-03-29T10:27:39;99148.50;;;9.85;40.19
42603;BME280;28233;55.748;48.752;2024-03-29T10:29:42;99141.44;;;9.84;39.59
42603;BME280;28233;55.748;48.752;2024-03-29T10:31:43;99135.44;;;9.82;39.86
42603;BME280;28233;55.748;48.752;2024-03-29T10:33:45;99140.44;;;9.88;40.37
42603;BME280;28233;55.748;48.752;2024-03-29T10:35:47;99130.91;;;9.94;39.75
42603;BME280;28233;55.748;48.752;2024-03-29T10:37:48;99138.97;;;10.00;39.51
42603;BME280;28233;55.748;48.752;2024-03-29T10:39:51;99142.97;;;10.11;39.98
42603;BME280;28233;55.748;48.752;2024-03-29T10:41:54;99149.38;;;10.24;39.20
42603;BME280;28233;55.748;48.752;2024-03-29T10:43:57;99137.44;;;10.20;39.14
42603;BME280;28233;55.748;48.752;2024-03-29T10:46:01;99148.59;;;10.23;39.93
42603;BME280;28233;55.748;48.752;2024-03-29T10:48:03;99145.69;;;10.20;39.14
42603;BME280;28233;55.748;48.752;2024-03-29T10:50:11;99144.84;;;10.36;39.63